createdAt,value
2023-06-16T00:00:01.002Z,13.94
2023-06-16T00:01:01.018Z,13.91
2023-06-16T00:02:01.096Z,13.89
2023-06-16T00:03:01.046Z,13.87
2023-06-16T00:04:01.106Z,13.88
2023-06-16T00:05:00.931Z,13.83
2023-06-16T00:06:00.991Z,13.87
2023-06-16T00:07:00.931Z,13.83
2023-06-16T00:08:00.949Z,13.79
2023-06-16T00:09:00.924Z,13.77
2023-06-16T00:10:00.922Z,13.74
2023-06-16T00:11:00.894Z,13.76
2023-06-16T00:12:00.882Z,13.74
2023-06-16T00:13:00.861Z,13.74
2023-06-16T00:14:00.872Z,13.71
2023-06-16T00:15:00.883Z,13.70
2023-06-16T00:16:00.858Z,13.69
2023-06-16T00:17:00.851Z,13.69
2023-06-16T00:18:00.869Z,13.70
2023-06-16T00:19:00.811Z,13.69
2023-06-16T00:20:00.922Z,13.67
2023-06-16T00:21:00.792Z,13.65
2023-06-16T00:22:00.914Z,13.67
2023-06-16T00:23:00.747Z,13.67
2023-06-16T00:24:00.859Z,13.65
2023-06-16T00:25:00.795Z,13.65
2023-06-16T00:26:00.746Z,13.63
2023-06-16T00:27:00.708Z,13.62
2023-06-16T00:28:00.709Z,13.63
2023-06-16T00:29:00.720Z,13.62
2023-06-16T00:30:00.704Z,13.62
2023-06-16T00:31:00.674Z,13.63
2023-06-16T00:32:00.695Z,13.67
2023-06-16T00:33:00.694Z,13.67
2023-06-16T00:34:00.721Z,13.63
2023-06-16T00:35:00.612Z,13.67
2023-06-16T00:36:00.681Z,13.63
2023-06-16T00:37:00.617Z,13.61
2023-06-16T00:38:00.652Z,13.61
2023-06-16T00:39:00.618Z,13.61
2023-06-16T00:40:00.593Z,13.56
2023-06-16T00:41:00.562Z,13.56
2023-06-16T00:42:00.556Z,13.56
2023-06-16T00:43:00.588Z,13.54
2023-06-16T00:44:00.542Z,13.51
2023-06-16T00:45:00.514Z,13.47
2023-06-16T00:46:00.584Z,13.44
2023-06-16T00:47:00.587Z,13.41
2023-06-16T00:48:00.644Z,13.38
2023-06-16T00:49:00.483Z,13.40
2023-06-16T00:50:00.471Z,13.38
2023-06-16T00:51:00.458Z,13.36
2023-06-16T00:52:00.486Z,13.33
2023-06-16T00:53:00.468Z,13.30
2023-06-16T00:54:00.445Z,13.25
2023-06-16T00:55:00.411Z,13.25
2023-06-16T00:56:00.436Z,13.24
2023-06-16T00:57:00.423Z,13.24
2023-06-16T00:58:00.396Z,13.25
2023-06-16T00:59:00.439Z,13.27
2023-06-16T01:00:00.369Z,13.29
2023-06-16T01:01:00.356Z,13.27
2023-06-16T01:02:00.429Z,13.22
2023-06-16T01:03:00.436Z,13.22
2023-06-16T01:04:00.332Z,13.22
2023-06-16T01:05:00.317Z,13.22
2023-06-16T01:06:00.318Z,13.18
2023-06-16T01:07:00.320Z,13.20
2023-06-16T01:08:00.306Z,13.18
2023-06-16T01:09:00.544Z,13.17
2023-06-16T01:10:00.304Z,13.15
2023-06-16T01:11:00.293Z,13.12
2023-06-16T01:12:00.318Z,13.12
2023-06-16T01:13:00.261Z,13.07
2023-06-16T01:14:00.322Z,13.03
2023-06-16T01:15:00.346Z,13.00
2023-06-16T01:16:00.304Z,13.00
2023-06-16T01:17:00.580Z,12.95
2023-06-16T01:18:00.192Z,12.93
2023-06-16T01:19:00.247Z,12.92
2023-06-16T01:20:00.208Z,12.88
2023-06-16T01:21:00.189Z,12.87
2023-06-16T01:22:00.218Z,12.85
2023-06-16T01:23:00.125Z,12.82
2023-06-16T01:24:00.188Z,12.78
2023-06-16T01:25:00.141Z,12.75
2023-06-16T01:26:00.160Z,12.71
2023-06-16T01:27:00.113Z,12.70
2023-06-16T01:28:00.093Z,12.70
2023-06-16T01:29:00.078Z,12.69
2023-06-16T01:30:00.105Z,12.64
2023-06-16T01:31:00.043Z,12.64
2023-06-16T01:32:00.038Z,12.62
2023-06-16T01:33:00.085Z,12.60
2023-06-16T01:34:00.057Z,12.59
2023-06-16T01:35:00.001Z,12.59
2023-06-16T01:36:00.021Z,12.56
2023-06-16T01:36:59.990Z,12.57
2023-06-16T01:37:59.967Z,12.57
2023-06-16T01:38:59.997Z,12.59
2023-06-16T01:39:59.950Z,12.57
2023-06-16T01:40:59.935Z,12.59
2023-06-16T01:41:59.949Z,12.59
2023-06-16T01:42:59.955Z,12.59
2023-06-16T01:43:59.935Z,12.62
2023-06-16T01:44:59.889Z,12.62
2023-06-16T01:45:59.942Z,12.60
2023-06-16T01:47:00.026Z,12.62
2023-06-16T01:47:59.947Z,12.59
2023-06-16T01:48:59.880Z,12.57
2023-06-16T01:49:59.855Z,12.51
2023-06-16T01:50:59.887Z,12.52
2023-06-16T01:51:59.876Z,12.51
2023-06-16T01:52:59.848Z,12.48
2023-06-16T01:53:59.812Z,12.48
2023-06-16T01:54:59.791Z,12.46
2023-06-16T01:55:59.806Z,12.45
2023-06-16T01:56:59.809Z,12.45
2023-06-16T01:57:59.790Z,12.44
2023-06-16T01:58:59.787Z,12.42
2023-06-16T01:59:59.750Z,12.42
2023-06-16T02:00:59.729Z,12.42
2023-06-16T02:01:59.801Z,12.42
2023-06-16T02:02:59.744Z,12.42
2023-06-16T02:03:59.767Z,12.42
2023-06-16T02:04:59.695Z,12.41
2023-06-16T02:05:59.722Z,12.41
2023-06-16T02:06:59.727Z,12.38
2023-06-16T02:07:59.662Z,12.34
2023-06-16T02:08:59.660Z,12.34
2023-06-16T02:09:59.648Z,12.31
2023-06-16T02:10:59.640Z,12.29
2023-06-16T02:11:59.655Z,12.29
2023-06-16T02:12:59.605Z,12.27
2023-06-16T02:13:59.609Z,12.27
2023-06-16T02:14:59.582Z,12.21
2023-06-16T02:15:59.627Z,12.23
2023-06-16T02:16:59.559Z,12.20
2023-06-16T02:17:59.590Z,12.16
2023-06-16T02:18:59.496Z,12.13
2023-06-16T02:19:59.518Z,12.11
2023-06-16T02:20:59.459Z,12.11
2023-06-16T02:21:59.463Z,12.09
2023-06-16T02:22:59.473Z,12.08
2023-06-16T02:23:59.479Z,12.05
2023-06-16T02:24:59.459Z,12.04
2023-06-16T02:25:59.421Z,12.01
2023-06-16T02:26:59.408Z,12.01
2023-06-16T02:27:59.424Z,12.01
2023-06-16T02:28:59.404Z,12.01
2023-06-16T02:29:59.376Z,12.02
2023-06-16T02:30:59.372Z,12.02
2023-06-16T02:31:59.384Z,12.01
2023-06-16T02:33:03.312Z,12.01
2023-06-16T02:33:59.366Z,12.01
2023-06-16T02:34:59.346Z,12.01
2023-06-16T02:35:59.377Z,12.01
2023-06-16T02:36:59.292Z,11.99
2023-06-16T02:37:59.286Z,11.94
2023-06-16T02:38:59.326Z,11.90
2023-06-16T02:39:59.300Z,11.94
2023-06-16T02:40:59.259Z,11.94
2023-06-16T02:41:59.253Z,11.93
2023-06-16T02:42:59.248Z,11.93
2023-06-16T02:43:59.255Z,11.90
2023-06-16T02:44:59.215Z,11.89
2023-06-16T02:45:59.228Z,11.85
2023-06-16T02:46:59.310Z,11.82
2023-06-16T02:47:59.233Z,11.80
2023-06-16T02:48:59.227Z,11.75
2023-06-16T02:49:59.165Z,11.72
2023-06-16T02:50:59.150Z,11.70
2023-06-16T02:51:59.140Z,11.67
2023-06-16T02:52:59.183Z,11.67
2023-06-16T02:53:59.131Z,11.68
2023-06-16T02:54:59.109Z,11.68
2023-06-16T02:55:59.111Z,11.71
2023-06-16T02:56:59.093Z,11.72
2023-06-16T02:57:59.117Z,11.72
2023-06-16T02:58:59.104Z,11.75
2023-06-16T02:59:59.080Z,11.78
2023-06-16T03:00:59.081Z,11.80
2023-06-16T03:01:59.060Z,11.82
2023-06-16T03:02:59.264Z,11.80
2023-06-16T03:03:59.028Z,11.77
2023-06-16T03:04:58.990Z,11.77
2023-06-16T03:05:58.992Z,11.77
2023-06-16T03:06:59.070Z,11.75
2023-06-16T03:07:58.960Z,11.74
2023-06-16T03:08:58.980Z,11.71
2023-06-16T03:09:58.959Z,11.68
2023-06-16T03:10:58.915Z,11.64
2023-06-16T03:11:59.133Z,11.62
2023-06-16T03:12:58.928Z,11.59
2023-06-16T03:13:58.922Z,11.59
2023-06-16T03:14:58.892Z,11.61
2023-06-16T03:15:58.916Z,11.59
2023-06-16T03:16:59.014Z,11.57
2023-06-16T03:18:01.354Z,11.61
2023-06-16T03:18:58.862Z,11.61
2023-06-16T03:19:58.833Z,11.61
2023-06-16T03:21:00.538Z,11.61
2023-06-16T03:21:58.822Z,11.62
2023-06-16T03:22:58.802Z,11.65
2023-06-16T03:23:58.843Z,11.67
2023-06-16T03:24:58.778Z,11.70
2023-06-16T03:25:58.812Z,11.70
2023-06-16T03:26:58.798Z,11.71
2023-06-16T03:27:58.742Z,11.72
2023-06-16T03:28:58.773Z,11.75
2023-06-16T03:29:58.755Z,11.77
2023-06-16T03:30:58.747Z,11.74
2023-06-16T03:31:58.712Z,11.75
2023-06-16T03:32:58.731Z,11.71
2023-06-16T03:34:07.359Z,11.71
2023-06-16T03:34:58.711Z,11.72
2023-06-16T03:35:58.666Z,11.71
2023-06-16T03:36:58.650Z,11.72
2023-06-16T03:37:58.645Z,11.74
2023-06-16T03:38:58.648Z,11.75
2023-06-16T03:39:58.663Z,11.75
2023-06-16T03:40:58.598Z,11.75
2023-06-16T03:41:58.592Z,11.77
2023-06-16T03:42:58.592Z,11.77
2023-06-16T03:43:58.597Z,11.78
2023-06-16T03:44:58.575Z,11.80
2023-06-16T03:45:58.593Z,11.78
2023-06-16T03:46:58.535Z,11.80
2023-06-16T03:47:58.587Z,11.80
2023-06-16T03:48:58.537Z,11.82
2023-06-16T03:49:58.516Z,11.83
2023-06-16T03:50:58.507Z,11.86
2023-06-16T03:51:58.495Z,11.87
2023-06-16T03:53:14.806Z,11.87
2023-06-16T03:53:58.494Z,11.87
2023-06-16T03:54:58.471Z,11.89
2023-06-16T03:55:58.455Z,11.90
2023-06-16T03:56:58.481Z,11.94
2023-06-16T03:57:58.463Z,11.96
2023-06-16T03:58:58.457Z,11.99
2023-06-16T03:59:58.458Z,12.01
2023-06-16T04:00:58.411Z,12.02
2023-06-16T04:01:58.400Z,12.02
2023-06-16T04:02:58.559Z,12.01
2023-06-16T04:03:58.439Z,12.01
2023-06-16T04:04:58.353Z,12.01
2023-06-16T04:05:58.378Z,12.01
2023-06-16T04:06:58.366Z,12.04
2023-06-16T04:07:58.357Z,12.02
2023-06-16T04:08:58.339Z,12.05
2023-06-16T04:09:58.332Z,12.05
2023-06-16T04:10:58.303Z,12.09
2023-06-16T04:11:58.331Z,12.08
2023-06-16T04:12:58.307Z,12.09
2023-06-16T04:13:58.311Z,12.09
2023-06-16T04:14:58.293Z,12.12
2023-06-16T04:15:58.242Z,12.15
2023-06-16T04:16:58.265Z,12.16
2023-06-16T04:17:58.294Z,12.21
2023-06-16T04:18:58.232Z,12.21
2023-06-16T04:19:58.291Z,12.24
2023-06-16T04:20:58.175Z,12.27
2023-06-16T04:21:58.335Z,12.31
2023-06-16T04:22:59.607Z,12.37
2023-06-16T04:23:58.412Z,12.38
2023-06-16T04:24:58.156Z,12.41
2023-06-16T04:26:00.142Z,12.46
2023-06-16T04:27:00.206Z,12.51
2023-06-16T04:27:58.303Z,12.56
2023-06-16T04:28:58.204Z,12.62
2023-06-16T04:29:58.757Z,12.66
2023-06-16T04:30:58.993Z,12.74
2023-06-16T04:32:06.623Z,12.79
2023-06-16T04:32:58.235Z,12.82
2023-06-16T04:33:58.052Z,12.88
2023-06-16T04:34:58.030Z,12.93
2023-06-16T04:35:58.018Z,12.97
2023-06-16T04:36:58.045Z,13.00
2023-06-16T04:37:58.092Z,13.02
2023-06-16T04:38:57.999Z,13.06
2023-06-16T04:39:58.022Z,13.06
2023-06-16T04:40:58.027Z,13.07
2023-06-16T04:41:57.995Z,13.07
2023-06-16T04:42:57.983Z,13.09
2023-06-16T04:43:57.954Z,13.09
2023-06-16T04:44:58.143Z,13.09
2023-06-16T04:45:57.964Z,13.11
2023-06-16T04:46:57.982Z,13.11
2023-06-16T04:47:57.935Z,13.12
2023-06-16T04:48:58.047Z,13.15
2023-06-16T04:49:57.902Z,13.17
2023-06-16T04:50:57.931Z,13.22
2023-06-16T04:51:58.039Z,13.24
2023-06-16T04:52:57.884Z,13.30
2023-06-16T04:53:57.890Z,13.36
2023-06-16T04:54:57.849Z,13.38
2023-06-16T04:55:57.853Z,13.41
2023-06-16T04:56:57.858Z,13.44
2023-06-16T04:57:57.835Z,13.44
2023-06-16T04:58:57.838Z,13.47
2023-06-16T04:59:57.822Z,13.49
2023-06-16T05:00:57.832Z,13.52
2023-06-16T05:01:57.768Z,13.52
2023-06-16T05:02:57.853Z,13.54
2023-06-16T05:03:57.963Z,13.52
2023-06-16T05:04:57.741Z,13.54
2023-06-16T05:05:57.716Z,13.55
2023-06-16T05:06:57.704Z,13.56
2023-06-16T05:07:57.738Z,13.61
2023-06-16T05:08:57.717Z,13.65
2023-06-16T05:09:57.661Z,13.67
2023-06-16T05:10:57.676Z,13.69
2023-06-16T05:11:57.650Z,13.74
2023-06-16T05:12:57.686Z,13.77
2023-06-16T05:13:57.641Z,13.77
2023-06-16T05:14:57.623Z,13.77
2023-06-16T05:18:51.408Z,13.83
2023-06-16T05:19:52.161Z,13.83
2023-06-16T05:20:52.176Z,13.84
2023-06-16T05:21:52.151Z,13.87
2023-06-16T05:22:52.152Z,13.89
2023-06-16T05:23:54.063Z,13.94
2023-06-16T05:24:52.108Z,13.98
2023-06-16T05:25:52.114Z,13.99
2023-06-16T05:26:52.096Z,14.04
2023-06-16T05:27:52.079Z,14.04
2023-06-16T05:28:52.052Z,14.09
2023-06-16T05:29:52.049Z,14.10
2023-06-16T05:30:52.113Z,14.06
2023-06-16T05:31:52.177Z,14.12
2023-06-16T05:32:52.155Z,14.16
2023-06-16T05:33:52.018Z,14.24
2023-06-16T05:34:52.006Z,14.35
2023-06-16T05:35:52.014Z,14.46
2023-06-16T05:36:51.994Z,14.53
2023-06-16T05:37:53.703Z,14.62
2023-06-16T05:38:53.230Z,14.72
2023-06-16T05:39:53.003Z,14.98
2023-06-16T05:40:52.632Z,15.11
2023-06-16T05:41:52.695Z,15.13
2023-06-16T05:42:51.944Z,15.24
2023-06-16T05:45:15.845Z,15.56
2023-06-16T05:46:16.772Z,15.72
2023-06-16T05:47:16.754Z,15.82
2023-06-16T05:48:16.738Z,15.88
2023-06-16T05:49:16.758Z,15.96
2023-06-16T05:50:17.021Z,16.04
2023-06-16T05:51:16.759Z,16.16
2023-06-16T05:52:16.684Z,16.26
2023-06-16T05:53:16.690Z,16.37
2023-06-16T05:54:16.688Z,16.45
2023-06-16T05:55:16.732Z,16.55
2023-06-16T05:56:16.652Z,16.73
2023-06-16T05:57:16.656Z,16.68
2023-06-16T05:58:16.617Z,16.63
2023-06-16T05:59:16.657Z,16.65
2023-06-16T06:00:16.722Z,16.59
2023-06-16T06:01:16.585Z,16.60
2023-06-16T06:02:16.609Z,16.60
2023-06-16T06:03:16.671Z,16.63
2023-06-16T06:04:16.748Z,16.59
2023-06-16T06:05:16.535Z,16.48
2023-06-16T06:06:16.541Z,16.50
2023-06-16T06:07:16.571Z,16.58
2023-06-16T06:08:16.564Z,16.59
2023-06-16T06:09:16.540Z,16.58
2023-06-16T06:10:17.011Z,16.59
2023-06-16T06:11:16.547Z,16.65
2023-06-16T06:12:16.507Z,16.70
2023-06-16T06:13:16.483Z,16.77
2023-06-16T06:14:16.466Z,16.81
2023-06-16T06:15:16.427Z,16.93
2023-06-16T06:16:16.509Z,16.98
2023-06-16T06:17:16.453Z,17.00
2023-06-16T06:18:16.437Z,17.06
2023-06-16T06:19:16.421Z,17.14
2023-06-16T06:20:16.570Z,17.13
2023-06-16T06:21:16.360Z,17.17
2023-06-16T06:22:16.381Z,17.18
2023-06-16T06:23:16.383Z,17.26
2023-06-16T06:24:16.364Z,17.35
2023-06-16T06:25:16.324Z,17.41
2023-06-16T06:26:16.307Z,17.57
2023-06-16T06:27:16.336Z,17.67
2023-06-16T06:28:16.299Z,17.74
2023-06-16T06:29:16.272Z,17.71
2023-06-16T06:30:16.584Z,17.76
2023-06-16T06:31:16.268Z,17.82
2023-06-16T06:32:16.308Z,17.82
2023-06-16T06:33:16.277Z,17.89
2023-06-16T06:34:16.273Z,17.91
2023-06-16T06:35:16.213Z,17.91
2023-06-16T06:36:16.198Z,17.94
2023-06-16T06:37:16.195Z,18.04
2023-06-16T06:38:16.213Z,18.13
2023-06-16T06:39:16.187Z,18.13
2023-06-16T06:40:16.283Z,18.28
2023-06-16T06:41:16.185Z,18.42
2023-06-16T06:42:16.136Z,18.54
2023-06-16T06:43:16.129Z,18.65
2023-06-16T06:44:16.129Z,18.92
2023-06-16T06:45:16.153Z,19.33
2023-06-16T06:46:16.211Z,19.53
2023-06-16T06:47:16.074Z,19.72
2023-06-16T06:48:16.069Z,20.18
2023-06-16T06:49:16.086Z,20.33
2023-06-16T06:50:16.159Z,20.56
2023-06-16T06:51:16.121Z,20.38
2023-06-16T06:52:16.039Z,20.31
2023-06-16T06:53:18.689Z,20.28
2023-06-16T06:54:16.045Z,20.16
2023-06-16T06:55:16.039Z,20.16
2023-06-16T06:56:15.992Z,20.08
2023-06-16T06:57:15.991Z,20.20
2023-06-16T06:58:15.982Z,20.28
2023-06-16T06:59:15.962Z,20.72
2023-06-16T07:00:16.061Z,21.48
2023-06-16T07:01:15.944Z,21.69
2023-06-16T07:02:15.988Z,21.60
2023-06-16T07:03:16.020Z,22.13
2023-06-16T07:04:16.094Z,22.67
2023-06-16T07:05:15.908Z,22.92
2023-06-16T07:06:15.874Z,23.39
2023-06-16T07:07:15.910Z,23.68
2023-06-16T07:08:15.880Z,23.86
2023-06-16T07:09:29.404Z,24.00
2023-06-16T07:10:15.875Z,24.08
2023-06-16T07:11:15.838Z,24.38
2023-06-16T07:12:15.821Z,24.32
2023-06-16T07:13:15.817Z,24.01
2023-06-16T07:14:15.840Z,23.82
2023-06-16T07:15:15.803Z,23.64
2023-06-16T07:16:15.847Z,23.57
2023-06-16T07:17:15.765Z,23.43
2023-06-16T07:18:15.876Z,23.34
2023-06-16T07:19:15.782Z,23.29
2023-06-16T07:20:15.748Z,23.27
2023-06-16T07:21:15.729Z,23.01
2023-06-16T07:22:15.726Z,22.94
2023-06-16T07:23:15.741Z,22.97
2023-06-16T07:24:15.754Z,22.99
2023-06-16T07:25:15.708Z,22.82
2023-06-16T07:26:15.687Z,22.74
2023-06-16T07:27:15.667Z,22.62
2023-06-16T07:28:15.700Z,22.52
2023-06-16T07:29:15.654Z,22.47
2023-06-16T07:30:15.661Z,22.75
2023-06-16T07:31:15.633Z,23.62
2023-06-16T07:32:15.652Z,24.41
2023-06-16T07:33:15.649Z,25.17
2023-06-16T07:34:15.622Z,25.77
2023-06-16T07:35:15.599Z,26.28
2023-06-16T07:36:15.602Z,26.08
2023-06-16T07:37:15.653Z,25.79
2023-06-16T07:38:15.621Z,26.09
2023-06-16T07:39:15.546Z,25.77
2023-06-16T07:40:15.831Z,24.71
2023-06-16T07:41:15.535Z,24.16
2023-06-16T07:42:15.534Z,23.68
2023-06-16T07:43:15.625Z,23.61
2023-06-16T07:44:15.508Z,23.67
2023-06-16T07:45:15.511Z,23.77
2023-06-16T07:46:15.530Z,23.47
2023-06-16T07:47:15.496Z,23.24
2023-06-16T07:48:15.468Z,23.23
2023-06-16T07:49:15.471Z,23.31
2023-06-16T07:50:15.499Z,23.47
2023-06-16T07:51:15.607Z,23.52
2023-06-16T07:52:17.055Z,23.50
2023-06-16T07:53:15.416Z,23.71
2023-06-16T07:54:15.451Z,24.13
2023-06-16T07:55:15.392Z,24.50
2023-06-16T07:56:15.408Z,25.07
2023-06-16T07:57:15.412Z,25.34
2023-06-16T07:58:15.392Z,26.29
2023-06-16T07:59:15.358Z,26.50
2023-06-16T08:00:15.335Z,26.86
2023-06-16T08:01:15.374Z,26.80
2023-06-16T08:02:15.377Z,27.43
2023-06-16T08:03:15.512Z,28.11
2023-06-16T08:04:15.508Z,28.50
2023-06-16T08:05:15.317Z,28.70
2023-06-16T08:06:15.296Z,29.18
2023-06-16T08:07:15.279Z,29.79
2023-06-16T08:08:15.274Z,30.15
2023-06-16T08:09:15.254Z,30.52
2023-06-16T08:10:16.307Z,30.47
2023-06-16T08:11:15.248Z,30.15
2023-06-16T08:12:15.243Z,30.31
2023-06-16T08:13:15.245Z,30.03
2023-06-16T08:14:15.214Z,29.60
2023-06-16T08:15:15.205Z,29.33
2023-06-16T08:16:15.317Z,29.28
2023-06-16T08:17:15.226Z,29.94
2023-06-16T08:18:15.215Z,30.11
2023-06-16T08:19:15.175Z,30.67
2023-06-16T08:20:15.139Z,30.00
2023-06-16T08:21:15.226Z,29.52
2023-06-16T08:22:15.174Z,29.37
2023-06-16T08:23:15.143Z,29.29
2023-06-16T08:24:15.228Z,29.11
2023-06-16T08:25:15.093Z,29.04
2023-06-16T08:26:15.169Z,28.77
2023-06-16T08:27:15.109Z,29.44
2023-06-16T08:28:15.080Z,29.82
2023-06-16T08:29:15.076Z,29.50
2023-06-16T08:30:15.060Z,28.75
2023-06-16T08:31:15.127Z,27.64
2023-06-16T08:32:15.075Z,27.06
2023-06-16T08:33:15.116Z,26.95
2023-06-16T08:34:15.053Z,27.35
2023-06-16T08:35:15.013Z,28.51
2023-06-16T08:36:14.996Z,29.81
2023-06-16T08:38:15.085Z,31.18
2023-06-16T08:39:14.982Z,30.72
2023-06-16T08:40:14.958Z,30.57
2023-06-16T08:41:14.949Z,29.92
2023-06-16T08:42:15.033Z,29.15
2023-06-16T08:43:14.954Z,28.38
2023-06-16T08:44:14.949Z,28.29
2023-06-16T08:45:14.916Z,28.97
2023-06-16T08:46:14.947Z,28.90
2023-06-16T08:47:14.933Z,28.81
2023-06-16T08:48:14.972Z,28.72
2023-06-16T08:49:14.888Z,29.41
2023-06-16T08:50:14.863Z,30.29
2023-06-16T08:51:14.865Z,30.80
2023-06-16T08:52:14.934Z,30.99
2023-06-16T08:53:14.857Z,31.15
2023-06-16T08:54:14.840Z,31.75
2023-06-16T08:55:15.098Z,32.18
2023-06-16T08:56:14.849Z,31.82
2023-06-16T08:57:14.833Z,30.64
2023-06-16T08:58:14.851Z,30.38
2023-06-16T08:59:14.828Z,30.38
2023-06-16T09:00:14.800Z,30.89
2023-06-16T09:01:14.790Z,31.72
2023-06-16T09:02:14.749Z,32.42
2023-06-16T09:04:14.797Z,33.22
2023-06-16T09:05:14.729Z,33.33
2023-06-16T09:06:14.853Z,33.52
2023-06-16T09:07:14.710Z,33.82
2023-06-16T09:08:14.692Z,33.68
2023-06-16T09:09:14.702Z,32.85
2023-06-16T09:10:14.722Z,32.73
2023-06-16T09:11:14.748Z,32.32
2023-06-16T09:12:14.659Z,32.48
2023-06-16T09:13:14.676Z,32.14
2023-06-16T09:14:14.712Z,31.72
2023-06-16T09:15:14.684Z,31.12
2023-06-16T09:16:14.689Z,31.09
2023-06-16T09:17:14.628Z,31.13
2023-06-16T09:18:14.666Z,30.74
2023-06-16T09:19:14.646Z,30.57
2023-06-16T09:20:14.605Z,30.02
2023-06-16T09:21:14.595Z,30.15
2023-06-16T09:22:14.582Z,30.08
2023-06-16T09:23:14.563Z,29.65
2023-06-16T09:24:14.628Z,29.86
2023-06-16T09:25:14.609Z,30.29
2023-06-16T09:26:14.617Z,30.56
2023-06-16T09:27:14.564Z,30.54
2023-06-16T09:28:14.526Z,29.93
2023-06-16T09:29:14.554Z,30.18
2023-06-16T09:30:14.584Z,30.65
2023-06-16T09:31:14.547Z,31.27
2023-06-16T09:32:14.488Z,31.31
2023-06-16T09:33:14.503Z,31.43
2023-06-16T09:34:14.490Z,31.61
2023-06-16T09:35:14.494Z,32.51
2023-06-16T09:36:14.464Z,33.01
2023-06-16T09:37:14.449Z,33.10
2023-06-16T09:38:14.509Z,33.03
2023-06-16T09:39:14.457Z,32.81
2023-06-16T09:40:14.433Z,31.87
2023-06-16T09:41:14.434Z,32.54
2023-06-16T09:42:14.402Z,33.13
2023-06-16T09:43:14.408Z,33.43
2023-06-16T09:44:14.405Z,33.68
2023-06-16T09:45:14.396Z,34.16
2023-06-16T09:46:14.496Z,34.29
2023-06-16T09:47:14.363Z,34.70
2023-06-16T09:48:14.391Z,34.80
2023-06-16T09:49:14.348Z,34.86
2023-06-16T09:50:14.331Z,34.74
2023-06-16T09:51:14.341Z,33.98
2023-06-16T09:52:14.360Z,33.63
2023-06-16T09:53:15.369Z,33.73
2023-06-16T09:54:14.318Z,34.44
2023-06-16T09:55:14.298Z,34.58
2023-06-16T09:56:14.326Z,34.81
2023-06-16T09:57:14.307Z,35.02
2023-06-16T09:58:14.276Z,34.53
2023-06-16T09:59:14.304Z,34.81
2023-06-16T10:00:14.253Z,35.17
2023-06-16T10:01:14.693Z,35.85
2023-06-16T10:02:14.273Z,36.29
2023-06-16T10:03:14.479Z,35.93
2023-06-16T10:04:14.241Z,34.99
2023-06-16T10:05:14.222Z,34.81
2023-06-16T10:06:14.244Z,33.68
2023-06-16T10:07:14.210Z,33.08
2023-06-16T10:08:14.206Z,32.55
2023-06-16T10:09:14.214Z,32.49
2023-06-16T10:10:14.187Z,32.84
2023-06-16T10:11:14.243Z,33.70
2023-06-16T10:12:14.199Z,33.43
2023-06-16T10:13:14.174Z,32.74
2023-06-16T10:14:14.168Z,32.20
2023-06-16T10:15:14.202Z,31.92
2023-06-16T10:16:14.146Z,32.15
2023-06-16T10:17:14.242Z,31.82
2023-06-16T10:18:14.432Z,31.50
2023-06-16T10:19:14.355Z,31.36
2023-06-16T10:20:14.088Z,30.89
2023-06-16T10:21:14.103Z,30.50
2023-06-16T10:22:14.107Z,30.03
2023-06-16T10:23:14.084Z,29.62
2023-06-16T10:24:14.125Z,29.50
2023-06-16T10:25:14.096Z,29.68
2023-06-16T10:26:14.055Z,29.63
2023-06-16T10:27:14.114Z,28.91
2023-06-16T10:28:14.065Z,28.65
2023-06-16T10:29:14.074Z,28.36
2023-06-16T10:30:14.103Z,28.56
2023-06-16T10:31:14.037Z,28.85
2023-06-16T10:32:13.995Z,29.26
2023-06-16T10:33:13.979Z,29.43
2023-06-16T10:34:14.031Z,29.66
2023-06-16T10:35:13.963Z,29.97
2023-06-16T10:36:21.392Z,30.29
2023-06-16T10:37:13.956Z,30.72
2023-06-16T10:38:13.930Z,29.84
2023-06-16T10:39:13.983Z,29.82
2023-06-16T10:40:13.930Z,30.81
2023-06-16T10:41:13.901Z,32.06
2023-06-16T10:42:13.976Z,32.80
2023-06-16T10:43:13.912Z,33.48
2023-06-16T10:44:13.950Z,33.74
2023-06-16T10:45:13.881Z,33.41
2023-06-16T10:46:13.886Z,33.76
2023-06-16T10:47:13.989Z,33.97
2023-06-16T10:48:13.943Z,33.52
2023-06-16T10:49:13.956Z,33.15
2023-06-16T10:50:13.858Z,33.58
2023-06-16T10:51:13.823Z,34.38
2023-06-16T10:52:13.810Z,34.76
2023-06-16T10:53:13.855Z,35.28
2023-06-16T10:54:13.851Z,35.55
2023-06-16T10:55:13.809Z,35.10
2023-06-16T10:56:13.816Z,34.13
2023-06-16T10:57:15.006Z,34.13
2023-06-16T10:58:13.826Z,34.11
2023-06-16T10:59:13.771Z,33.49
2023-06-16T11:00:13.776Z,32.55
2023-06-16T11:01:13.784Z,33.14
2023-06-16T11:02:13.767Z,34.01
2023-06-16T11:03:13.881Z,34.13
2023-06-16T11:04:13.931Z,34.04
2023-06-16T11:05:13.797Z,34.19
2023-06-16T11:06:13.699Z,32.88
2023-06-16T11:07:30.605Z,31.26
2023-06-16T11:08:13.701Z,30.16
2023-06-16T11:09:13.706Z,29.82
2023-06-16T11:10:13.678Z,29.82
2023-06-16T11:11:13.730Z,29.59
2023-06-16T11:12:13.673Z,29.16
2023-06-16T11:13:13.649Z,28.66
2023-06-16T11:14:13.643Z,28.06
2023-06-16T11:15:13.648Z,27.64
2023-06-16T11:16:13.728Z,27.31
2023-06-16T11:17:13.601Z,27.16
2023-06-16T11:18:13.594Z,26.95
2023-06-16T11:19:13.686Z,26.91
2023-06-16T11:20:13.675Z,26.84
2023-06-16T11:21:13.900Z,26.80
2023-06-16T11:22:13.566Z,26.83
2023-06-16T11:23:13.580Z,26.72
2023-06-16T11:24:13.669Z,26.57
2023-06-16T11:25:13.572Z,26.32
2023-06-16T11:26:13.574Z,27.39
2023-06-16T11:27:13.590Z,27.96
2023-06-16T11:28:13.495Z,27.99
2023-06-16T11:29:13.504Z,27.57
2023-06-16T11:30:13.551Z,27.61
2023-06-16T11:31:13.770Z,27.96
2023-06-16T11:32:13.460Z,29.08
2023-06-16T11:33:13.453Z,30.16
2023-06-16T11:34:13.451Z,30.64
2023-06-16T11:35:13.491Z,31.45
2023-06-16T11:36:13.422Z,31.40
2023-06-16T11:37:13.422Z,31.15
2023-06-16T11:38:13.448Z,30.23
2023-06-16T11:39:13.425Z,29.92
2023-06-16T11:40:13.403Z,29.66
2023-06-16T11:41:13.383Z,29.13
2023-06-16T11:42:13.356Z,28.38
2023-06-16T11:43:13.406Z,27.98
2023-06-16T11:44:13.404Z,27.43
2023-06-16T11:45:13.333Z,27.58
2023-06-16T11:46:13.354Z,27.58
2023-06-16T11:47:13.334Z,27.39
2023-06-16T11:48:13.368Z,27.14
2023-06-16T11:49:13.341Z,26.92
2023-06-16T11:50:13.303Z,27.13
2023-06-16T11:52:03.569Z,27.74
2023-06-16T11:53:04.599Z,28.85
2023-06-16T11:54:04.563Z,29.38
2023-06-16T11:55:04.517Z,29.49
2023-06-16T11:56:04.525Z,29.60
2023-06-16T11:57:04.502Z,29.79
2023-06-16T11:58:04.510Z,30.19
2023-06-16T11:59:04.510Z,30.84
2023-06-16T12:00:04.485Z,31.23
2023-06-16T12:01:04.568Z,31.24
2023-06-16T12:02:04.520Z,31.04
2023-06-16T12:03:04.544Z,30.40
2023-06-16T12:04:07.004Z,29.97
2023-06-16T12:05:04.433Z,29.62
2023-06-16T12:06:04.425Z,29.43
2023-06-16T12:07:05.839Z,29.43
2023-06-16T12:08:04.432Z,29.50
2023-06-16T12:09:04.442Z,29.35
2023-06-16T12:10:04.426Z,29.18
2023-06-16T12:11:04.387Z,29.18
2023-06-16T12:12:04.392Z,28.96
2023-06-16T12:13:04.428Z,28.80
2023-06-16T12:14:04.410Z,28.63
2023-06-16T12:15:04.333Z,28.68
2023-06-16T12:16:04.346Z,28.80
2023-06-16T12:17:04.374Z,28.96
2023-06-16T12:18:04.394Z,28.91
2023-06-16T12:19:04.318Z,28.90
2023-06-16T12:20:04.282Z,29.04
2023-06-16T12:21:04.347Z,29.23
2023-06-16T12:22:04.296Z,29.08
2023-06-16T12:23:04.302Z,28.93
2023-06-16T12:24:04.316Z,28.88
2023-06-16T12:25:04.255Z,28.90
2023-06-16T12:26:04.260Z,29.03
2023-06-16T12:27:04.228Z,28.95
2023-06-16T12:28:04.215Z,28.77
2023-06-16T12:29:04.242Z,28.40
2023-06-16T12:30:04.242Z,28.17
2023-06-16T12:31:04.207Z,28.13
2023-06-16T12:32:04.202Z,28.09
2023-06-16T12:33:04.189Z,27.84
2023-06-16T12:34:04.176Z,27.38
2023-06-16T12:35:04.161Z,27.17
2023-06-16T12:36:04.132Z,27.04
2023-06-16T12:37:04.123Z,26.98
2023-06-16T12:38:04.138Z,26.95
2023-06-16T12:39:04.110Z,27.02
2023-06-16T12:40:04.108Z,27.16
2023-06-16T12:41:04.100Z,27.31
2023-06-16T12:42:04.121Z,27.57
2023-06-16T12:43:04.062Z,27.61
2023-06-16T12:44:04.080Z,27.46
2023-06-16T12:45:04.077Z,27.41
2023-06-16T12:46:04.063Z,27.35
2023-06-16T12:47:04.030Z,27.36
2023-06-16T12:48:04.038Z,27.39
2023-06-16T12:49:04.029Z,27.66
2023-06-16T12:50:04.034Z,27.61
2023-06-16T12:51:04.023Z,27.43
2023-06-16T12:52:03.978Z,27.01
2023-06-16T12:53:03.980Z,26.86
2023-06-16T12:54:03.979Z,26.74
2023-06-16T12:55:03.958Z,26.74
2023-06-16T12:56:03.945Z,26.81
2023-06-16T12:57:03.927Z,26.69
2023-06-16T12:58:03.966Z,26.76
2023-06-16T12:59:03.940Z,26.86